Time;durP1;ratioP1;P1;durP2;ratioP2;P2;SDS_P1;SDS_P2;PMS_P1;PMS_P2;Temp;Humidity;BMP_temperature;BMP_pressure;BME280_temperature;BME280_humidity;BME280_pressure;Samples;Min_cycle;Max_cycle;Signal;HPM_P1;HPM_P2
2024/02/14 00:01:36;;;;;;;46.80;26.20;;;;;;;-147.86;100.00;63168.98;104863;1270;60007;-56
2024/02/14 00:04:07;;;;;;;42.60;26.10;;;;;;;-147.86;100.00;63304.36;105703;1259;72238;-58
2024/02/14 00:06:36;;;;;;;40.70;25.10;;;;;;;-147.86;100.00;63389.77;105665;1254;63316;-58
2024/02/14 00:09:04;;;;;;;39.00;24.90;;;;;;;-147.86;100.00;63482.26;105707;1259;71627;-59
2024/02/14 00:11:32;;;;;;;40.10;26.00;;;;;;;-147.86;100.00;63560.98;105712;1251;59359;-56
2024/02/14 00:14:00;;;;;;;42.80;26.60;;;;;;;-147.86;100.00;63575.93;105927;1251;60006;-57
2024/02/14 00:16:31;;;;;;;36.70;22.40;;;;;;;-147.86;100.00;63610.57;105900;1251;70948;-59
2024/02/14 00:18:59;;;;;;;29.50;20.10;;;;;;;-147.86;100.00;63560.98;105936;1251;64468;-57
2024/02/14 00:21:27;;;;;;;29.00;18.40;;;;;;;-147.86;100.00;63560.59;105869;1252;71464;-60
2024/02/14 00:23:56;;;;;;;22.40;15.90;;;;;;;-147.86;100.00;63550.75;105870;1252;59915;-59
2024/02/14 00:26:24;;;;;;;29.90;20.90;;;;;;;-147.86;100.00;63544.05;105922;1255;59564;-59
2024/02/14 00:28:52;;;;;;;30.80;19.30;;;;;;;-147.86;100.00;63600.34;105977;1251;71465;-57
2024/02/14 00:31:20;;;;;;;43.20;21.40;;;;;;;-147.86;100.00;63625.92;105912;1256;65141;-58
2024/02/14 00:33:49;;;;;;;34.10;20.60;;;;;;;-147.86;100.00;63640.09;105917;1256;71440;-54
2024/02/14 00:36:17;;;;;;;28.10;18.70;;;;;;;-147.86;100.00;63657.41;105932;1256;60378;-56
2024/02/14 00:38:45;;;;;;;21.10;15.60;;;;;;;-147.86;100.00;63669.22;105939;1256;59552;-60
2024/02/14 00:41:13;;;;;;;22.80;17.70;;;;;;;-147.86;100.00;63679.46;105898;1251;71885;-59
2024/02/14 00:43:41;;;;;;;23.70;17.10;;;;;;;-147.86;100.00;63674.73;105905;1251;63218;-58
2024/02/14 00:46:08;;;;;;;21.00;15.30;;;;;;;-147.86;100.00;63675.13;106003;1253;71786;-60
2024/02/14 00:48:36;;;;;;;27.80;19.20;;;;;;;-147.86;100.00;63737.71;105918;1254;60018;-59
2024/02/14 00:51:04;;;;;;;31.10;20.30;;;;;;;-147.86;100.00;63795.96;105919;1251;59958;-59
2024/02/14 00:53:33;;;;;;;39.00;23.20;;;;;;;-147.86;100.00;63873.51;105901;1254;72987;-60
2024/02/14 00:56:01;;;;;;;42.20;21.90;;;;;;;-147.86;100.00;63933.33;105902;1251;63138;-58
2024/02/14 00:58:28;;;;;;;33.10;20.20;;;;;;;-147.86;100.00;64023.88;105885;1253;71926;-58
2024/02/14 01:00:56;;;;;;;31.30;19.10;;;;;;;-147.86;100.00;64139.21;105891;1256;60543;-59
2024/02/14 01:03:24;;;;;;;33.20;19.80;;;;;;;-147.86;100.00;64269.12;105874;1256;59993;-57
2024/02/14 01:05:51;;;;;;;27.00;17.80;;;;;;;-147.86;100.00;64372.26;105779;1251;71771;-57
2024/02/14 01:08:19;;;;;;;30.40;17.90;;;;;;;-147.86;100.00;64444.70;105687;1252;63075;-59
2024/02/14 01:10:48;;;;;;;24.50;16.10;;;;;;;-147.86;100.00;64506.51;105725;1254;71451;-59
2024/02/14 01:13:16;;;;;;;26.60;16.20;;;;;;;-147.86;100.00;64524.61;105860;1253;59791;-57
2024/02/14 01:15:44;;;;;;;41.90;24.30;;;;;;;-147.86;100.00;64560.04;105898;1256;59643;-54
2024/02/14 01:18:11;;;;;;;53.00;26.00;;;;;;;-147.86;100.00;64574.61;105833;1253;71838;-60
2024/02/14 01:20:40;;;;;;;63.30;33.00;;;;;;;-147.86;100.00;64618.31;105832;1251;63288;-57
2024/02/14 01:23:07;;;;;;;53.70;29.40;;;;;;;-147.86;100.00;64701.39;105864;1253;71362;-57
2024/02/14 01:25:35;;;;;;;53.00;29.70;;;;;;;-147.86;100.00;64831.71;105841;1253;60456;-59
2024/02/14 01:28:05;;;;;;;48.20;25.50;;;;;;;-147.86;100.00;64998.26;105800;1256;59701;-58
2024/02/14 01:30:32;;;;;;;53.10;25.60;;;;;;;-147.86;100.00;65203.39;105885;1253;73002;-59
2024/02/14 01:33:01;;;;;;;53.80;27.40;;;;;;;-147.86;100.00;65423.90;105876;1252;63833;-58
2024/02/14 01:35:30;;;;;;;38.80;22.70;;;;;;;-147.86;100.00;65620.01;105871;1257;71397;-58
2024/02/14 01:37:58;;;;;;;39.80;22.40;;;;;;;-147.86;100.00;65794.07;105860;1253;60871;-59
2024/02/14 01:40:25;;;;;;;43.30;24.90;;;;;;;-147.86;100.00;65939.39;105836;1253;59992;-58
2024/02/14 01:42:53;;;;;;;39.30;23.00;;;;;;;-147.86;100.00;66033.52;105849;1257;71753;-60
2024/02/14 01:46:42;;;;;;;48.10;29.20;;;;;;;-147.86;100.00;68963.77;102741;1293;600348;-58
2024/02/14 01:49:11;;;;;;;52.80;29.10;;;;;;;-147.86;100.00;62105.82;105078;1264;61644;-57
2024/02/14 01:51:42;;;;;;;58.40;31.70;;;;;;;-147.86;100.00;63622.00;104856;1267;60411;-57
2024/02/14 01:54:10;;;;;;;58.80;30.40;;;;;;;-147.86;100.00;64163.23;105322;1263;72151;-58
2024/02/14 01:56:40;;;;;;;60.50;33.00;;;;;;;-147.86;100.00;64474.23;105402;1259;63174;-56
2024/02/14 01:59:09;;;;;;;56.80;31.20;;;;;;;-147.86;100.00;64693.91;105166;1260;252267;-57
2024/02/14 02:01:36;;;;;;;49.10;29.00;;;;;;;-147.86;100.00;64927.77;105558;1257;60440;-57
2024/02/14 02:04:04;;;;;;;56.50;29.40;;;;;;;-147.86;100.00;65141.57;105542;1258;60150;-58
2024/02/14 02:06:32;;;;;;;66.50;32.10;;;;;;;-147.86;100.00;65310.50;105504;1256;70993;-56
2024/02/14 02:09:01;;;;;;;56.10;30.60;;;;;;;-147.86;100.00;65450.68;105598;1257;63504;-57
2024/02/14 02:56:51;;;;;;;56.30;24.70;;;;;;;-147.86;100.00;75179.72;102615;1294;599384;-57
2024/02/14 02:59:19;;;;;;;63.40;25.90;;;;;;;-147.86;100.00;66358.05;104823;1273;60189;-56
2024/02/14 03:01:49;;;;;;;42.70;25.70;;;;;;;-147.86;100.00;66420.67;104807;1272;59261;-56
2024/02/14 03:04:18;;;;;;;40.50;23.90;;;;;;;-147.86;100.00;66460.07;104815;1267;72189;-59
2024/02/14 03:06:46;;;;;;;37.90;22.00;;;;;;;-147.86;100.00;66469.52;104836;1271;63185;-59
2024/02/14 03:09:14;;;;;;;36.00;21.30;;;;;;;-147.86;100.00;66493.55;104777;1267;71387;-58
2024/02/14 03:11:46;;;;;;;73.50;24.50;;;;;;;-147.86;100.00;66528.20;104856;1269;265482;-58
2024/02/14 03:14:14;;;;;;;162.50;28.80;;;;;;;-147.86;100.00;66600.30;105119;1268;59279;-58
2024/02/14 03:16:42;;;;;;;80.00;27.00;;;;;;;-147.86;100.00;66689.70;105048;1269;71136;-59
2024/02/14 03:19:10;;;;;;;40.20;25.00;;;;;;;-147.86;100.00;66700.34;105086;1268;63140;-58
2024/02/14 03:21:38;;;;;;;35.60;23.60;;;;;;;-147.86;100.00;66710.19;105111;1268;71410;-60
2024/02/14 03:24:09;;;;;;;37.90;24.60;;;;;;;-147.86;100.00;66690.48;105074;1264;60169;-59
2024/02/14 03:26:38;;;;;;;69.40;25.30;;;;;;;-147.86;100.00;66659.38;105551;1261;59548;-58
2024/02/14 03:29:06;;;;;;;97.20;23.90;;;;;;;-147.86;100.00;66678.67;105541;1257;71873;-56
2024/02/14 03:31:34;;;;;;;48.60;24.90;;;;;;;-147.86;100.00;66705.08;105551;1258;63101;-59
2024/02/14 03:34:02;;;;;;;40.00;24.50;;;;;;;-147.86;100.00;66725.16;105499;1259;72649;-58
2024/02/14 03:36:32;;;;;;;29.70;19.10;;;;;;;-147.86;100.00;66809.85;105514;1260;60474;-58
2024/02/14 03:39:03;;;;;;;47.60;21.20;;;;;;;-147.86;100.00;66814.98;105574;1258;59777;-57
2024/02/14 03:41:32;;;;;;;101.30;23.20;;;;;;;-147.86;100.00;66822.45;105588;1260;71755;-58
2024/02/14 03:44:03;;;;;;;36.40;22.00;;;;;;;-147.86;100.00;67064.33;105499;1258;63152;-58
2024/02/14 03:46:31;;;;;;;29.30;19.40;;;;;;;-147.86;100.00;67257.36;105514;1256;72647;-58
2024/02/14 03:48:59;;;;;;;43.90;22.00;;;;;;;-147.86;100.00;67413.77;105589;1260;61595;-59
2024/02/14 03:51:27;;;;;;;63.10;22.20;;;;;;;-147.86;100.00;67498.86;105490;1261;59557;-59
2024/02/14 03:53:55;;;;;;;93.40;22.90;;;;;;;-147.86;100.00;67582.39;105545;1257;71893;-60
2024/02/14 03:56:24;;;;;;;41.60;22.90;;;;;;;-147.86;100.00;67626.91;105728;1257;62109;-58
2024/02/14 03:58:52;;;;;;;51.80;22.20;;;;;;;-147.86;100.00;67726.99;105686;1255;71398;-57
2024/02/14 04:01:19;;;;;;;26.90;20.20;;;;;;;-147.86;100.00;67788.06;105662;1256;60375;-57
2024/02/14 04:03:48;;;;;;;33.00;21.20;;;;;;;-147.86;100.00;67839.29;105717;1257;59676;-58
2024/02/14 04:06:17;;;;;;;34.80;22.20;;;;;;;-147.86;100.00;67898.39;105692;1254;71752;-59
2024/02/14 04:08:45;;;;;;;70.20;23.00;;;;;;;-147.86;100.00;67962.23;105742;1254;63302;-58
2024/02/14 04:11:14;;;;;;;45.90;22.60;;;;;;;-147.86;100.00;68044.98;105675;1254;72725;-58
2024/02/14 04:13:42;;;;;;;36.20;22.90;;;;;;;-147.86;100.00;68133.63;105648;1254;59713;-59
2024/02/14 04:16:09;;;;;;;49.50;23.20;;;;;;;-147.86;100.00;68219.92;105688;1260;59561;-59
2024/02/14 04:18:37;;;;;;;36.70;20.90;;;;;;;-147.86;100.00;68262.88;105717;1254;71823;-58
2024/02/14 04:21:07;;;;;;;47.30;20.60;;;;;;;-147.86;100.00;68275.88;105664;1254;63197;-59
2024/02/14 04:23:35;;;;;;;43.80;23.00;;;;;;;-147.86;100.00;68249.08;105688;1254;71359;-59
2024/02/14 04:26:04;;;;;;;115.50;26.40;;;;;;;-147.86;100.00;68254.60;105699;1259;59695;-59
2024/02/14 04:28:32;;;;;;;48.20;24.70;;;;;;;-147.86;100.00;68251.45;105723;1254;59679;-59
2024/02/14 04:30:59;;;;;;;39.10;22.70;;;;;;;-147.86;100.00;68322.38;105673;1260;73052;-59
2024/02/14 04:33:27;;;;;;;38.50;22.80;;;;;;;-147.86;100.00;68422.47;105676;1260;62212;-58
2024/02/14 04:35:55;;;;;;;35.90;21.30;;;;;;;-147.86;100.00;68507.60;105685;1254;71472;-59
2024/02/14 04:38:23;;;;;;;33.30;21.20;;;;;;;-147.86;100.00;68554.89;105693;1259;60385;-60
2024/02/14 04:40:52;;;;;;;63.00;21.30;;;;;;;-147.86;100.00;68578.52;105727;1252;59998;-57
2024/02/14 04:43:19;;;;;;;73.50;23.20;;;;;;;-147.86;100.00;68609.66;105708;1254;72116;-59
2024/02/14 04:45:47;;;;;;;56.20;22.50;;;;;;;-147.86;100.00;68653.41;105662;1259;63612;-59
2024/02/14 04:48:16;;;;;;;43.20;22.80;;;;;;;-147.86;100.00;68693.61;105732;1254;71406;-58
2024/02/14 04:50:44;;;;;;;43.20;21.20;;;;;;;-147.86;100.00;68717.65;105729;1260;60406;-58
2024/02/14 04:53:11;;;;;;;53.10;21.30;;;;;;;-147.86;100.00;68735.38;105696;1257;59695;-57
2024/02/14 04:55:40;;;;;;;65.80;21.80;;;;;;;-147.86;100.00;68729.08;105685;1260;72222;-56
2024/02/14 04:58:07;;;;;;;49.60;21.90;;;;;;;-147.86;100.00;68725.14;105661;1254;63511;-57
2024/02/14 05:00:35;;;;;;;50.30;22.40;;;;;;;-147.86;100.00;68737.73;105646;1254;71500;-58
2024/02/14 05:03:03;;;;;;;42.30;22.00;;;;;;;-147.86;100.00;68775.58;105642;1254;60684;-55
2024/02/14 05:05:33;;;;;;;56.50;24.90;;;;;;;-147.86;100.00;68792.92;105710;1258;59564;-56
2024/02/14 05:08:02;;;;;;;80.90;25.40;;;;;;;-147.86;100.00;68768.09;105701;1254;73086;-58
2024/02/14 05:10:31;;;;;;;47.70;23.10;;;;;;;-147.86;100.00;68755.48;105704;1254;63092;-59
2024/02/14 05:12:59;;;;;;;35.60;21.30;;;;;;;-147.86;100.00;68762.17;105732;1259;72592;-59
2024/02/14 05:15:26;;;;;;;41.10;22.60;;;;;;;-147.86;100.00;68729.46;105686;1260;60392;-57
2024/02/14 05:17:56;;;;;;;44.70;21.10;;;;;;;-147.86;100.00;68738.54;105673;1259;60407;-56
2024/02/14 05:20:24;;;;;;;54.60;21.80;;;;;;;-147.86;100.00;68740.50;105728;1254;71620;-57
2024/02/14 05:22:52;;;;;;;70.50;24.90;;;;;;;-147.86;100.00;68760.61;105719;1258;63126;-56
2024/02/14 05:25:20;;;;;;;42.20;25.50;;;;;;;-147.86;100.00;68755.48;105719;1254;72629;-59
2024/02/14 05:27:48;;;;;;;48.90;25.10;;;;;;;-147.86;100.00;68748.79;105677;1254;60470;-59
2024/02/14 05:30:16;;;;;;;40.80;24.10;;;;;;;-147.86;100.00;68753.11;105683;1260;60312;-56
2024/02/14 05:32:44;;;;;;;56.00;25.20;;;;;;;-147.86;100.00;68813.81;105674;1254;71771;-59
2024/02/14 05:35:12;;;;;;;54.30;25.20;;;;;;;-147.86;100.00;68879.23;105671;1254;63135;-59
2024/02/14 05:37:40;;;;;;;77.40;26.30;;;;;;;-147.86;100.00;68917.46;105659;1258;72661;-59
2024/02/14 05:40:08;;;;;;;49.60;26.30;;;;;;;-147.86;100.00;68950.96;105680;1254;61598;-58
2024/02/14 05:42:36;;;;;;;53.80;28.20;;;;;;;-147.86;100.00;69002.20;105713;1260;59654;-59
2024/02/14 05:45:05;;;;;;;41.40;24.50;;;;;;;-147.86;100.00;69073.14;105756;1253;71828;-59
2024/02/14 05:47:33;;;;;;;36.30;20.70;;;;;;;-147.86;100.00;69124.38;105719;1259;63158;-58
2024/02/14 05:50:01;;;;;;;50.20;22.50;;;;;;;-147.86;100.00;69169.31;105655;1254;70443;-59
2024/02/14 05:52:29;;;;;;;64.20;22.70;;;;;;;-147.86;100.00;69185.48;105712;1259;59768;-57
2024/02/14 05:54:57;;;;;;;46.00;24.80;;;;;;;-147.86;100.00;69229.62;105700;1259;59779;-59
2024/02/14 05:57:25;;;;;;;45.70;26.40;;;;;;;-147.86;100.00;69256.81;105671;1254;71770;-57
2024/02/14 05:59:52;;;;;;;53.00;30.10;;;;;;;-147.86;100.00;69283.23;105748;1254;64542;-58
2024/02/14 06:02:21;;;;;;;44.10;24.10;;;;;;;-147.86;100.00;69339.20;105687;1258;71659;-59
2024/02/14 06:04:49;;;;;;;56.10;24.30;;;;;;;-147.86;100.00;69342.35;105682;1254;60022;-55
2024/02/14 06:07:17;;;;;;;78.00;26.00;;;;;;;-147.86;100.00;69341.16;105637;1256;59660;-58
2024/02/14 06:09:45;;;;;;;53.50;24.80;;;;;;;-147.86;100.00;69371.12;105427;1257;71877;-61
2024/02/14 06:12:13;;;;;;;79.80;35.40;;;;;;;-147.86;100.00;69411.33;105674;1254;63983;-60
2024/02/14 06:14:41;;;;;;;488.00;242.40;;;;;;;-147.86;100.00;69438.52;105680;1254;71767;-59
2024/02/14 06:17:09;;;;;;;298.20;124.20;;;;;;;-147.86;100.00;69465.33;105681;1258;61677;-57
2024/02/14 06:19:38;;;;;;;674.20;310.80;;;;;;;-147.86;100.00;69518.94;105732;1259;59954;-58
2024/02/14 06:22:07;;;;;;;174.20;67.20;;;;;;;-147.86;100.00;69552.84;105674;1254;71746;-59
2024/02/14 06:24:35;;;;;;;260.40;146.00;;;;;;;-147.86;100.00;69637.98;105669;1254;63027;-57
2024/02/14 06:27:03;;;;;;;65.00;34.40;;;;;;;-147.86;100.00;69682.92;105679;1254;71367;-58
2024/02/14 06:29:31;;;;;;;60.30;31.80;;;;;;;-147.86;100.00;69677.40;105701;1259;61700;-59
2024/02/14 06:31:58;;;;;;;60.40;32.40;;;;;;;-147.86;100.00;69716.03;105643;1254;59973;-56
2024/02/14 06:34:28;;;;;;;72.00;31.20;;;;;;;-147.86;100.00;69768.86;105683;1254;73027;-58
2024/02/14 06:36:56;;;;;;;56.50;31.40;;;;;;;-147.86;100.00;69806.70;105699;1254;63121;-59
2024/02/14 06:39:24;;;;;;;63.50;33.00;;;;;;;-147.86;100.00;69829.17;105673;1254;71525;-55
2024/02/14 06:41:52;;;;;;;94.10;45.60;;;;;;;-147.86;100.00;69885.15;105668;1259;60379;-59
2024/02/14 06:44:20;;;;;;;63.20;33.00;;;;;;;-147.86;100.00;69945.08;105706;1259;59605;-56
2024/02/14 06:46:48;;;;;;;70.90;33.30;;;;;;;-147.86;100.00;69947.05;105661;1259;71075;-56
2024/02/14 06:49:16;;;;;;;113.40;34.40;;;;;;;-147.86;100.00;69941.53;105687;1254;63125;-57
2024/02/14 06:51:45;;;;;;;70.00;32.80;;;;;;;-147.86;100.00;69990.80;105724;1254;73385;-59
2024/02/14 06:54:13;;;;;;;66.30;35.20;;;;;;;-147.86;100.00;70043.63;105649;1254;61619;-58
2024/02/14 06:56:41;;;;;;;67.20;35.60;;;;;;;-147.86;100.00;70063.73;105664;1259;59637;-59
2024/02/14 06:59:09;;;;;;;63.70;33.50;;;;;;;-147.86;100.00;70088.57;105715;1258;72971;-58
2024/02/14 07:01:38;;;;;;;64.70;36.50;;;;;;;-147.86;100.00;70064.13;105664;1254;64442;-58
2024/02/14 07:56:20;;;;;;;73.50;37.30;;;;;;;-147.86;100.00;78026.27;102617;1291;603608;-58
2024/02/14 07:58:49;;;;;;;81.60;48.60;;;;;;;-147.86;100.00;69532.34;105142;1269;61787;-60
2024/02/14 08:01:16;;;;;;;64.60;38.60;;;;;;;-147.86;100.00;69643.51;105225;1261;60336;-57
2024/02/14 08:03:45;;;;;;;63.50;37.30;;;;;;;-147.86;100.00;69614.33;105240;1264;72105;-61
2024/02/14 08:06:13;;;;;;;58.80;35.20;;;;;;;-147.86;100.00;69560.73;105248;1267;64672;-59
2024/02/14 08:08:40;;;;;;;69.00;36.80;;;;;;;-147.86;100.00;69526.42;105054;1273;246428;-60
2024/02/14 08:11:08;;;;;;;83.40;38.30;;;;;;;-147.86;100.00;69451.92;105578;1262;60134;-60
2024/02/14 08:13:35;;;;;;;77.70;39.40;;;;;;;-147.86;100.00;69376.64;105544;1262;61424;-57
2024/02/14 08:16:02;;;;;;;66.80;40.40;;;;;;;-147.86;100.00;69301.75;105578;1264;72001;-58
2024/02/14 08:18:29;;;;;;;66.60;38.40;;;;;;;-147.86;100.00;69243.41;105525;1263;66887;-58
2024/02/14 08:20:56;;;;;;;65.60;38.10;;;;;;;-147.86;100.00;69213.05;105543;1263;72743;-59
2024/02/14 08:23:23;;;;;;;70.20;38.10;;;;;;;-147.86;100.00;69158.27;105577;1262;60325;-58
2024/02/14 08:25:51;;;;;;;91.80;38.70;;;;;;;-147.86;100.00;69085.75;105622;1257;61250;-59
2024/02/14 08:28:20;;;;;;;76.00;40.20;;;;;;;-147.86;100.00;68987.61;105538;1262;73003;-55
2024/02/14 08:30:47;;;;;;;67.80;39.80;;;;;;;-147.86;100.00;68944.27;105585;1263;64976;-58
2024/02/14 08:33:14;;;;;;;78.50;47.50;;;;;;;-147.86;100.00;68950.56;105533;1257;72683;-58
2024/02/14 08:35:42;;;;;;;79.30;39.60;;;;;;;-147.86;100.00;68949.38;105547;1263;61918;-57
2024/02/14 08:38:10;;;;;;;79.90;40.50;;;;;;;-147.86;100.00;68925.73;105539;1263;61051;-60
2024/02/14 08:40:37;;;;;;;69.90;41.80;;;;;;;-147.86;100.00;68899.33;105590;1260;74334;-57
2024/02/14 08:43:04;;;;;;;61.20;37.80;;;;;;;-147.86;100.00;68825.23;105585;1263;64747;-61
2024/02/14 08:45:31;;;;;;;76.90;41.90;;;;;;;-147.86;100.00;68687.70;105576;1257;72649;-59
2024/02/14 08:47:58;;;;;;;76.90;41.80;;;;;;;-147.86;100.00;68638.83;105526;1263;62095;-56
2024/02/14 08:50:25;;;;;;;75.50;40.00;;;;;;;-147.86;100.00;68597.84;105541;1257;60537;-59
2024/02/14 08:52:52;;;;;;;68.90;39.90;;;;;;;-147.86;100.00;68506.02;105438;1264;72976;-60
2024/02/14 08:55:19;;;;;;;81.00;42.60;;;;;;;-147.86;100.00;68405.92;105530;1263;64645;-57
2024/02/14 08:57:47;;;;;;;75.60;42.10;;;;;;;-147.86;100.00;68384.64;105501;1262;72654;-59
2024/02/14 09:00:19;;;;;;;74.40;43.10;;;;;;;-147.86;100.00;68355.88;105473;1262;61882;-58
2024/02/14 09:02:49;;;;;;;72.60;43.00;;;;;;;-147.86;100.00;68373.60;105472;1262;60534;-57
2024/02/14 09:05:17;;;;;;;78.30;42.70;;;;;;;-147.86;100.00;68403.95;105490;1260;72978;-59
2024/02/14 09:07:44;;;;;;;71.50;40.60;;;;;;;-147.86;100.00;68461.48;105405;1263;64765;-55
2024/02/14 09:10:12;;;;;;;65.50;40.10;;;;;;;-147.86;100.00;68523.75;105510;1261;72788;-56
2024/02/14 09:12:41;;;;;;;73.40;39.60;;;;;;;-147.86;100.00;68443.75;105411;1263;63185;-58
2024/02/14 09:15:08;;;;;;;66.40;39.80;;;;;;;-147.86;100.00;68356.66;105406;1261;60566;-58
2024/02/14 09:17:36;;;;;;;67.00;39.30;;;;;;;-147.86;100.00;68285.73;105396;1262;74508;-59
2024/02/14 09:20:03;;;;;;;66.40;40.00;;;;;;;-147.86;100.00;68184.06;105475;1262;66246;-56
2024/02/14 09:22:31;;;;;;;73.70;40.20;;;;;;;-147.86;100.00;68019.75;105467;1263;72735;-59
2024/02/14 09:24:58;;;;;;;72.00;40.40;;;;;;;-147.86;100.00;67886.96;105481;1263;62217;-58
2024/02/14 09:27:25;;;;;;;70.20;41.20;;;;;;;-147.86;100.00;67758.52;105391;1261;60331;-58
2024/02/14 09:29:52;;;;;;;77.30;42.20;;;;;;;-147.86;100.00;67626.52;105429;1262;72062;-58
2024/02/14 09:32:19;;;;;;;82.50;46.30;;;;;;;-147.86;100.00;67461.44;105476;1263;64745;-60
2024/02/14 09:34:47;;;;;;;77.80;45.90;;;;;;;-147.86;100.00;67257.76;105391;1259;72578;-59
2024/02/14 09:37:14;;;;;;;91.20;48.60;;;;;;;-147.86;100.00;66918.17;105431;1263;60505;-60
2024/02/14 09:39:43;;;;;;;84.20;44.60;;;;;;;-147.86;100.00;66546.73;105405;1261;61336;-59
2024/02/14 09:42:13;;;;;;;95.10;47.50;;;;;;;-147.86;100.00;66006.34;105422;1263;72828;-58
2024/02/14 09:44:40;;;;;;;92.30;47.50;;;;;;;-147.86;100.00;65283.72;105443;1260;65027;-60
2024/02/14 09:47:09;;;;;;;88.70;49.10;;;;;;;-147.86;100.00;64602.96;105421;1264;71695;-60
2024/02/14 09:49:36;;;;;;;88.70;49.50;;;;;;;-147.86;100.00;63728.26;105553;1263;59820;-59
2024/02/14 09:52:05;;;;;;;97.90;48.40;;;;;;;-147.86;100.00;62614.50;105479;1263;61759;-58
2024/02/14 09:54:36;;;;;;;79.10;46.80;;;;;;;-147.86;100.00;61480.99;105474;1263;73547;-59
2024/02/14 09:57:03;;;;;;;80.80;45.00;;;;;;;-147.86;100.00;60181.05;105449;1263;65665;-60
2024/02/14 09:59:30;;;;;;;87.40;45.90;;;;;;;-147.86;100.00;58831.22;105235;1261;71484;-58
2024/02/14 10:01:59;;;;;;;105.10;47.80;;;;;;;-147.86;100.00;57329.37;105631;1260;60513;-59
2024/02/14 10:04:26;;;;;;;78.90;46.10;;;;;;;-147.86;100.00;55680.78;105568;1255;60282;-59
2024/02/14 10:06:53;;;;;;;78.50;41.40;;;;;;;-147.86;100.00;53904.88;105656;1255;73362;-59
2024/02/14 10:09:25;;;;;;;73.30;42.10;;;;;;;-147.86;100.00;51864.87;105644;1254;66089;-58
2024/02/14 10:11:52;;;;;;;74.10;42.60;;;;;;;-147.86;100.00;49321.13;105617;1254;72600;-58
2024/02/14 10:14:19;;;;;;;73.60;42.40;;;;;;;-147.86;100.00;46791.19;105593;1254;61829;-61
2024/02/14 10:16:47;;;;;;;71.30;39.80;;;;;;;-147.86;100.00;44088.96;105601;1254;61383;-60
2024/02/14 10:19:17;;;;;;;80.20;42.80;;;;;;;-147.86;100.00;41161.97;105658;1254;74440;-59
2024/02/14 10:22:05;;;;;;;85.20;43.60;;;;;;;-147.86;100.00;38009.54;105663;1259;65167;-58
2024/02/14 10:24:31;;;;;;;91.60;45.80;;;;;;;-147.86;100.00;34216.91;105625;1254;72578;-59
2024/02/14 10:26:59;;;;;;;76.80;41.70;;;;;;;-147.86;100.00;31029.89;105655;1260;63131;-58
2024/02/14 10:29:27;;;;;;;70.90;41.80;;;;;;;-147.86;100.00;27405.08;105681;1260;60847;-56
2024/02/14 10:31:54;;;;;;;80.10;43.30;;;;;;;-147.86;100.00;23877.52;105684;1258;74111;-57
2024/02/14 10:34:25;;;;;;;87.50;45.20;;;;;;;-147.86;100.00;20794.25;105634;1261;66121;-60
2024/02/14 10:36:56;;;;;;;84.70;44.00;;;;;;;-147.86;100.00;18339.44;105626;1259;73033;-58
2024/02/14 10:39:25;;;;;;;92.60;43.20;;;;;;;-147.86;100.00;17198.46;105634;1258;62249;-59
2024/02/14 10:41:53;;;;;;;77.80;43.40;;;;;;;-147.86;100.00;20140.35;105688;1255;61749;-60
2024/02/14 10:44:20;;;;;;;89.60;45.70;;;;;;;-147.86;100.00;19894.20;105641;1258;74481;-57
2024/02/14 10:46:48;;;;;;;80.60;44.50;;;;;;;-147.86;100.00;17566.79;105699;1259;65149;-62
2024/02/14 10:49:15;;;;;;;82.20;43.90;;;;;;;-147.86;100.00;13290.13;105521;1254;72828;-58
2024/02/14 10:51:44;;;;;;;81.00;43.40;;;;;;;-147.86;100.00;8056.86;105595;1261;63242;-61
2024/02/14 10:54:12;;;;;;;89.30;42.20;;;;;;;-147.86;100.00;4254.51;105603;1258;60422;-59
2024/02/14 10:56:44;;;;;;;79.70;42.50;;;;;;;-147.86;100.00;1229.36;105645;1259;72942;-60
2024/02/14 10:59:14;;;;;;;83.50;44.10;;;;;;;-147.86;100.00;-1046.21;105967;1251;62870;-61
2024/02/14 11:01:41;;;;;;;77.30;42.90;;;;;;;-147.86;100.00;-3527.06;105956;1250;73123;-58
2024/02/14 11:04:08;;;;;;;74.50;41.80;;;;;;;-147.86;100.00;-5857.83;105917;1254;62634;-61
2024/02/14 11:07:02;;;;;;;74.10;40.90;;;;;;;-147.86;100.00;-8027.22;105936;1251;60437;-60
2024/02/14 11:09:35;;;;;;;84.20;42.90;;;;;;;-147.86;100.00;-10144.38;105676;1252;74176;-57
2024/02/14 11:12:10;;;;;;;85.60;45.40;;;;;;;-147.86;100.00;-11641.55;105831;1256;65988;-59
2024/02/14 11:14:39;;;;;;;77.40;43.80;;;;;;;-147.86;100.00;-12511.69;105760;1251;73038;-55
2024/02/14 11:17:11;;;;;;;83.90;41.50;;;;;;;-147.86;100.00;-13445.30;105934;1254;63322;-56
2024/02/14 11:19:38;;;;;;;73.40;42.30;;;;;;;-147.86;100.00;-14197.35;105985;1254;60654;-57
2024/02/14 11:22:13;;;;;;;84.60;45.60;;;;;;;-147.86;100.00;-14482.46;105905;1250;74389;-58
2024/02/14 11:24:41;;;;;;;73.60;41.00;;;;;;;-147.86;100.00;-15046.45;105983;1254;65985;-59
2024/02/14 11:27:11;;;;;;;80.50;43.70;;;;;;;-147.86;100.00;-15475.39;105977;1251;71869;-57
2024/02/14 11:29:57;;;;;;;87.00;44.10;;;;;;;-147.86;100.00;-16380.49;105858;1257;61264;-58
2024/02/14 11:32:27;;;;;;;85.20;42.50;;;;;;;-147.86;100.00;-16005.68;105998;1250;60779;-58
2024/02/14 11:34:58;;;;;;;80.50;41.90;;;;;;;-147.86;100.00;-16024.19;105941;1251;74041;-60
2024/02/14 11:37:29;;;;;;;78.90;43.30;;;;;;;-147.86;100.00;-16205.05;105969;1250;66099;-57
2024/02/14 11:39:57;;;;;;;79.90;42.60;;;;;;;-147.86;100.00;-16248.63;105922;1251;72183;-55
2024/02/14 11:42:25;;;;;;;83.00;42.80;;;;;;;-147.86;100.00;-16205.06;106008;1254;60281;-60
2024/02/14 11:44:56;;;;;;;81.60;41.80;;;;;;;-147.86;100.00;-16331.93;105996;1254;60221;-59
2024/02/14 11:47:23;;;;;;;80.60;40.30;;;;;;;-147.86;100.00;-16510.85;106015;1254;73195;-58
2024/02/14 11:49:50;;;;;;;80.60;40.10;;;;;;;-147.86;100.00;-16599.93;105913;1257;65268;-59
2024/02/14 11:52:19;;;;;;;77.40;40.90;;;;;;;-147.86;100.00;-16678.58;105823;1257;73859;-57
2024/02/14 11:54:50;;;;;;;73.20;43.10;;;;;;;-147.86;100.00;-16748.76;105889;1257;60629;-60
2024/02/14 11:57:18;;;;;;;71.60;40.50;;;;;;;-147.86;100.00;-16815.84;105901;1254;59670;-54
2024/02/14 11:59:49;;;;;;;70.00;39.60;;;;;;;-147.86;100.00;-16927.28;105924;1256;74802;-61
2024/02/14 12:02:16;;;;;;;68.40;37.20;;;;;;;-147.86;100.00;-17058.36;105722;1257;66385;-60
2024/02/14 12:04:44;;;;;;;70.80;38.60;;;;;;;-147.86;100.00;-17041.40;105853;1256;73864;-59
2024/02/14 12:07:11;;;;;;;76.50;39.60;;;;;;;-147.86;100.00;-17138.17;105980;1254;61685;-59
2024/02/14 12:09:38;;;;;;;69.30;40.80;;;;;;;-147.86;100.00;-17129.68;105942;1250;60588;-58
2024/02/14 12:12:07;;;;;;;73.70;39.50;;;;;;;-147.86;100.00;-17020.19;105938;1251;74924;-59
2024/02/14 12:14:34;;;;;;;77.30;41.00;;;;;;;-147.86;100.00;-16864.81;105920;1251;64881;-60
2024/02/14 12:17:03;;;;;;;70.20;38.60;;;;;;;-147.86;100.00;-16591.43;105964;1250;74004;-59
2024/02/14 12:19:30;;;;;;;82.00;38.40;;;;;;;-147.86;100.00;-16244.38;105953;1254;60546;-60
2024/02/14 12:22:01;;;;;;;74.00;40.10;;;;;;;-147.86;100.00;-15881.49;106005;1251;60548;-59
2024/02/14 12:24:29;;;;;;;79.80;40.80;;;;;;;-147.86;100.00;-15480.37;105918;1254;75682;-58
2024/02/14 12:26:56;;;;;;;72.40;40.40;;;;;;;-147.86;100.00;-15025.61;105891;1256;64857;-58
2024/02/14 12:29:24;;;;;;;72.10;37.70;;;;;;;-147.86;100.00;-14756.34;105883;1253;72834;-60